Time;durP1;ratioP1;P1;durP2;ratioP2;P2;SDS_P1;SDS_P2;PMS_P1;PMS_P2;Temp;Humidity;BMP_temperature;BMP_pressure;BME280_temperature;BME280_humidity;BME280_pressure;Samples;Min_cycle;Max_cycle;Signal;HPM_P1;HPM_P2
2021/07/07 00:01:01;;;;;;;5.15;2.77;;;;;;;22.57;68.54;100322.03;1693342;84;21522;-74
2021/07/07 00:03:28;;;;;;;3.25;2.98;;;;;;;22.54;68.63;100320.09;1643736;86;21049;-75
2021/07/07 00:05:54;;;;;;;3.30;2.55;;;;;;;22.59;68.49;100332.08;1658807;84;21622;-73
2021/07/07 00:08:22;;;;;;;3.92;3.62;;;;;;;22.60;68.36;100329.06;1662028;85;21027;-72
2021/07/07 00:10:49;;;;;;;7.30;2.77;;;;;;;22.60;68.40;100330.42;1647136;86;21079;-73
2021/07/07 00:13:15;;;;;;;5.40;3.00;;;;;;;22.55;68.19;100330.44;1677928;84;21089;-72
2021/07/07 00:15:42;;;;;;;4.83;2.95;;;;;;;22.49;68.19;100332.33;1672115;85;21058;-72
2021/07/07 00:18:10;;;;;;;3.50;2.60;;;;;;;22.49;68.09;100340.47;1670929;85;20983;-73
2021/07/07 00:23:17;;;;;;;2.17;2.08;;;;;;;22.50;67.77;100348.07;1657989;85;21618;-73
2021/07/07 00:25:43;;;;;;;3.10;2.65;;;;;;;22.46;67.62;100343.71;1682898;84;21054;-72
2021/07/07 00:28:11;;;;;;;4.72;3.30;;;;;;;22.41;67.69;100338.81;1690726;84;21676;-73
2021/07/07 00:30:37;;;;;;;3.08;2.87;;;;;;;22.38;67.95;100344.24;1685339;84;21058;-73
2021/07/07 00:33:03;;;;;;;2.87;2.67;;;;;;;22.40;67.78;100342.63;1674747;84;21038;-73
2021/07/07 00:35:30;;;;;;;6.08;2.65;;;;;;;22.45;67.47;100348.05;1677326;84;21035;-71
2021/07/07 00:37:57;;;;;;;3.47;2.87;;;;;;;22.45;67.26;100348.05;1658851;85;21079;-73
2021/07/07 00:40:25;;;;;;;2.65;2.45;;;;;;;22.40;67.34;100348.05;1646009;85;21092;-73
2021/07/07 00:42:51;;;;;;;4.22;2.65;;;;;;;22.35;67.47;100355.63;1677211;84;22521;-73
2021/07/07 00:45:18;;;;;;;3.17;2.98;;;;;;;22.34;67.51;100355.37;1675269;84;21045;-73
2021/07/07 00:47:46;;;;;;;2.87;2.60;;;;;;;22.38;67.44;100352.39;1674704;85;20999;-71
2021/07/07 00:50:16;;;;;;;3.90;2.72;;;;;;;22.39;67.26;100345.05;1672528;85;20983;-74
2021/07/07 00:52:44;;;;;;;3.75;3.15;;;;;;;22.34;67.42;100349.39;1690036;83;21069;-72
2021/07/07 00:55:13;;;;;;;2.22;2.10;;;;;;;22.30;67.59;100348.30;1696149;83;20974;-73
2021/07/07 00:57:44;;;;;;;8.08;2.77;;;;;;;22.30;67.60;100348.30;1718408;82;21279;-72
2021/07/07 01:00:17;;;;;;;5.10;3.50;;;;;;;22.35;67.49;100346.93;1713184;82;21570;-71
2021/07/07 01:02:45;;;;;;;6.20;3.17;;;;;;;22.37;67.47;100355.36;1715662;83;20999;-72
2021/07/07 01:05:14;;;;;;;4.20;3.58;;;;;;;22.34;67.51;100352.66;1701415;83;21466;-71
2021/07/07 01:07:41;;;;;;;3.47;3.17;;;;;;;22.28;67.58;100347.75;1681369;85;21506;-73
2021/07/07 01:10:12;;;;;;;3.25;2.90;;;;;;;22.31;67.58;100356.70;1681006;84;20981;-73
2021/07/07 01:12:39;;;;;;;6.60;2.92;;;;;;;22.35;67.49;100351.00;1666320;84;21049;-73
2021/07/07 01:15:10;;;;;;;5.90;3.30;;;;;;;22.39;67.52;100358.63;1656306;85;21034;-73
2021/07/07 01:17:37;;;;;;;3.83;3.40;;;;;;;22.37;67.52;100360.80;1656252;85;21022;-72
2021/07/07 01:20:10;;;;;;;4.10;3.22;;;;;;;22.34;67.56;100364.88;1640993;85;21079;-73
2021/07/07 01:22:38;;;;;;;3.60;3.17;;;;;;;22.35;67.59;100356.98;1649800;86;21168;-73
2021/07/07 01:25:08;;;;;;;2.85;2.65;;;;;;;22.40;67.47;100361.09;1648624;85;20977;-73
2021/07/07 01:27:36;;;;;;;3.65;3.35;;;;;;;22.42;67.43;100361.63;1647129;85;20983;-72
2021/07/07 01:30:06;;;;;;;3.60;3.20;;;;;;;22.37;67.50;100359.44;1646921;86;21095;-72
2021/07/07 01:32:32;;;;;;;5.22;3.35;;;;;;;22.33;67.53;100361.32;1638601;85;21006;-71
2021/07/07 01:35:00;;;;;;;3.83;2.67;;;;;;;22.33;67.57;100360.51;1653491;85;21004;-73
2021/07/07 01:37:27;;;;;;;3.20;3.00;;;;;;;22.37;67.51;100359.44;1649244;85;20972;-74
2021/07/07 01:39:54;;;;;;;3.80;3.27;;;;;;;22.34;67.59;100362.97;1655862;85;21777;-74
2021/07/07 01:42:20;;;;;;;7.78;3.67;;;;;;;22.28;67.74;100362.67;1653020;85;21083;-73
2021/07/07 01:44:46;;;;;;;3.60;3.50;;;;;;;22.26;67.84;100370.80;1656935;85;21018;-74
2021/07/07 01:47:12;;;;;;;3.10;2.80;;;;;;;22.25;67.82;100369.98;1665686;84;20983;-74
2021/07/07 01:49:39;;;;;;;3.00;2.52;;;;;;;22.27;67.76;100371.08;1670136;85;21077;-74
2021/07/07 01:52:06;;;;;;;7.62;3.35;;;;;;;22.27;67.84;100369.72;1665489;85;20994;-73
2021/07/07 01:54:33;;;;;;;5.25;3.70;;;;;;;22.27;67.87;100372.44;1671125;85;21463;-73
2021/07/07 01:56:59;;;;;;;4.70;4.25;;;;;;;22.22;67.84;100376.45;1655829;85;21513;-74
2021/07/07 01:59:25;;;;;;;5.12;3.85;;;;;;;22.18;67.99;100376.71;1648798;85;21081;-74
2021/07/07 02:01:51;;;;;;;3.22;3.00;;;;;;;22.19;67.95;100379.17;1652571;85;21009;-73
2021/07/07 02:04:18;;;;;;;3.47;3.05;;;;;;;22.21;67.93;100374.28;1657457;85;21113;-73
2021/07/07 02:06:45;;;;;;;4.03;3.72;;;;;;;22.24;68.01;100386.50;1667694;85;21635;-73
2021/07/07 02:09:11;;;;;;;4.12;3.67;;;;;;;22.24;67.86;100390.58;1679756;85;21058;-73
2021/07/07 02:11:38;;;;;;;3.67;3.47;;;;;;;22.24;67.87;100387.86;1668674;85;21011;-73
2021/07/07 02:14:06;;;;;;;5.00;3.80;;;;;;;22.22;67.50;100388.12;1676413;84;21347;-73
2021/07/07 02:16:32;;;;;;;3.95;3.40;;;;;;;22.20;67.67;100384.86;1659338;85;21076;-74
2021/07/07 02:19:00;;;;;;;3.52;3.10;;;;;;;22.23;67.84;100391.67;1665958;85;21547;-74
2021/07/07 02:21:26;;;;;;;3.17;3.00;;;;;;;22.31;67.48;100401.50;1677996;84;21928;-75
2021/07/07 02:23:55;;;;;;;3.47;3.37;;;;;;;22.37;67.17;100400.17;1677375;85;21614;-73
2021/07/07 02:26:21;;;;;;;4.55;3.60;;;;;;;22.40;67.13;100393.67;1670587;84;21127;-73
2021/07/07 02:28:48;;;;;;;3.98;3.42;;;;;;;22.46;67.11;100406.73;1590056;88;21024;-75
2021/07/07 02:31:14;;;;;;;3.80;3.47;;;;;;;22.53;66.96;100408.11;1596333;89;21026;-74
2021/07/07 02:33:40;;;;;;;3.55;3.27;;;;;;;22.64;66.70;100406.25;1620901;86;21090;-74
2021/07/07 02:36:08;;;;;;;4.15;3.83;;;;;;;22.80;66.47;100404.38;1647322;86;21117;-74
2021/07/07 02:38:34;;;;;;;4.25;3.92;;;;;;;22.96;66.17;100409.84;1644096;86;21050;-73
2021/07/07 02:41:01;;;;;;;3.92;3.70;;;;;;;23.04;65.89;100406.64;1642997;86;21089;-75
2021/07/07 02:43:27;;;;;;;4.15;3.85;;;;;;;23.13;65.26;100407.20;1639552;86;21053;-74
2021/07/07 02:45:54;;;;;;;3.27;3.12;;;;;;;23.20;65.10;100409.63;1638086;86;21582;-73
2021/07/07 02:48:20;;;;;;;3.55;3.33;;;;;;;23.35;64.63;100406.66;1593283;90;21058;-73
2021/07/07 02:50:49;;;;;;;4.20;3.72;;;;;;;23.63;64.15;100412.09;1593816;89;21024;-74
2021/07/07 02:53:17;;;;;;;3.50;3.30;;;;;;;24.00;62.92;100412.34;1592030;89;21018;-74
2021/07/07 02:55:45;;;;;;;3.72;3.50;;;;;;;24.27;62.32;100420.95;1616637;87;21097;-73
2021/07/07 02:58:13;;;;;;;3.47;3.27;;;;;;;24.60;61.49;100418.68;1650915;86;21084;-73
2021/07/07 03:00:49;;;;;;;3.42;3.22;;;;;;;24.99;60.24;100420.62;1663189;86;21577;-74
2021/07/07 03:03:22;;;;;;;4.08;2.95;;;;;;;25.33;58.51;100417.13;1669572;86;21065;-74
2021/07/07 03:05:58;;;;;;;3.40;3.20;;;;;;;25.56;58.25;100421.58;1670756;83;21555;-73
2021/07/07 03:08:31;;;;;;;2.62;2.20;;;;;;;25.73;57.36;100427.45;1711544;83;21030;-74
2021/07/07 03:10:59;;;;;;;3.02;2.77;;;;;;;25.94;57.06;100423.98;1716024;83;20998;-74
2021/07/07 03:13:27;;;;;;;2.95;2.83;;;;;;;26.31;56.15;100436.69;1707079;83;21065;-73
2021/07/07 03:15:54;;;;;;;2.85;2.45;;;;;;;26.61;54.57;100436.33;1711562;83;21097;-75
2021/07/07 03:18:22;;;;;;;2.30;2.20;;;;;;;26.82;54.07;100440.16;1712445;83;20991;-73
2021/07/07 03:20:52;;;;;;;1.77;1.67;;;;;;;26.98;53.44;100437.47;1716584;83;21011;-74
2021/07/07 03:23:21;;;;;;;4.45;2.58;;;;;;;27.18;52.89;100441.00;1699541;82;21089;-75
2021/07/07 03:25:49;;;;;;;2.87;2.12;;;;;;;27.37;52.21;100443.20;1678009;85;21034;-74
2021/07/07 03:28:21;;;;;;;5.17;2.70;;;;;;;27.61;51.22;100444.98;1684201;85;21102;-73
2021/07/07 03:30:48;;;;;;;2.08;2.00;;;;;;;27.83;51.19;100449.01;1688063;85;21049;-73
2021/07/07 03:33:16;;;;;;;2.80;2.65;;;;;;;27.71;50.70;100449.50;1676193;85;21038;-74
2021/07/07 03:35:43;;;;;;;2.60;2.42;;;;;;;27.28;51.48;100446.92;1636654;86;21078;-74
2021/07/07 03:38:09;;;;;;;3.12;2.92;;;;;;;26.55;52.33;100406.61;1634899;86;21026;-73
2021/07/07 03:40:38;;;;;;;4.17;3.15;;;;;;;26.29;53.43;100452.00;1636845;86;21003;-74
2021/07/07 03:43:06;;;;;;;2.92;2.72;;;;;;;25.79;54.80;100449.50;1627262;86;21141;-72
2021/07/07 03:45:32;;;;;;;3.50;3.33;;;;;;;25.37;55.78;100459.67;1627260;86;21573;-73
2021/07/07 03:47:58;;;;;;;8.83;3.15;;;;;;;25.06;56.73;100451.67;1625302;86;21589;-75
2021/07/07 03:50:25;;;;;;;2.50;2.30;;;;;;;24.87;57.57;100462.42;1685171;83;21106;-74
2021/07/07 03:52:53;;;;;;;4.08;2.90;;;;;;;24.70;58.38;100453.23;1673148;83;22398;-74
2021/07/07 03:55:24;;;;;;;3.35;3.17;;;;;;;24.51;58.59;100461.19;1681009;83;20996;-75
2021/07/07 03:57:51;;;;;;;4.20;3.90;;;;;;;24.29;59.39;100466.98;1659742;84;20979;-74
2021/07/07 04:00:23;;;;;;;3.85;2.85;;;;;;;24.13;59.51;100470.30;1670539;83;21057;-75
2021/07/07 04:02:50;;;;;;;4.45;3.60;;;;;;;23.99;59.31;100462.42;1686616;83;21092;-76
2021/07/07 04:05:18;;;;;;;4.50;3.65;;;;;;;23.88;59.39;100462.97;1690528;83;21063;-75
2021/07/07 04:07:45;;;;;;;9.13;4.22;;;;;;;23.77;59.60;100463.52;1684364;83;21049;-74
2021/07/07 04:10:13;;;;;;;4.62;4.17;;;;;;;23.74;59.49;100472.22;1679056;83;21032;-76
2021/07/07 04:12:42;;;;;;;5.83;2.90;;;;;;;23.70;59.29;100463.78;1685262;83;21473;-75
2021/07/07 04:15:12;;;;;;;3.80;3.60;;;;;;;23.68;58.28;100468.69;1688447;83;21061;-74
2021/07/07 04:17:41;;;;;;;5.12;3.25;;;;;;;23.71;58.37;100468.14;1683756;83;21115;-75
2021/07/07 04:20:12;;;;;;;5.83;3.05;;;;;;;23.79;58.78;100474.98;1687049;83;21131;-74
2021/07/07 04:22:38;;;;;;;3.20;3.00;;;;;;;23.84;58.08;100472.23;1689183;83;21067;-73
2021/07/07 04:25:09;;;;;;;4.47;3.30;;;;;;;23.85;57.93;100473.06;1689053;83;21036;-73
2021/07/07 04:27:39;;;;;;;4.40;4.00;;;;;;;23.85;57.66;100471.15;1683484;83;21019;-75
2021/07/07 04:30:09;;;;;;;4.87;3.92;;;;;;;23.86;57.28;100474.13;1690666;83;21067;-74
2021/07/07 04:32:35;;;;;;;9.13;3.77;;;;;;;23.83;57.62;100474.70;1679203;84;21038;-75
2021/07/07 04:35:03;;;;;;;4.90;3.25;;;;;;;23.81;57.97;100476.88;1666591;84;21207;-75
2021/07/07 04:37:28;;;;;;;6.17;3.42;;;;;;;23.77;56.98;100472.20;1670043;84;21566;-74
2021/07/07 04:39:56;;;;;;;6.00;3.60;;;;;;;23.72;57.59;100477.13;1676574;85;22266;-74
2021/07/07 04:42:22;;;;;;;4.17;3.58;;;;;;;23.68;57.59;100480.13;1666011;85;21069;-74
2021/07/07 04:44:48;;;;;;;3.08;2.98;;;;;;;23.67;57.39;100482.00;1667802;85;21033;-74
2021/07/07 04:47:14;;;;;;;3.87;3.02;;;;;;;23.64;57.00;100477.13;1656333;84;21002;-75
2021/07/07 04:49:41;;;;;;;2.83;2.62;;;;;;;23.57;57.04;100482.02;1670387;84;21118;-75
2021/07/07 04:52:07;;;;;;;5.83;3.15;;;;;;;23.56;56.61;100491.80;1674539;84;21094;-75
2021/07/07 04:54:33;;;;;;;12.60;6.45;;;;;;;23.55;56.74;100488.27;1674006;84;21049;-75
2021/07/07 04:56:59;;;;;;;3.50;3.17;;;;;;;23.55;57.03;100489.63;1674074;84;21005;-75
2021/07/07 04:59:26;;;;;;;4.65;2.62;;;;;;;23.57;56.87;100488.81;1670531;84;21026;-74
2021/07/07 05:01:52;;;;;;;5.25;3.17;;;;;;;23.60;56.49;100505.13;1666366;85;21000;-74
2021/07/07 05:04:18;;;;;;;5.35;2.80;;;;;;;23.58;56.18;100498.59;1685071;85;21082;-76
2021/07/07 05:06:44;;;;;;;3.15;2.55;;;;;;;23.57;56.48;100499.70;1691090;84;21105;-78
2021/07/07 05:09:11;;;;;;;1.67;1.57;;;;;;;23.56;55.68;100499.41;1682941;85;21131;-76
2021/07/07 05:11:37;;;;;;;2.12;2.00;;;;;;;23.59;54.92;100500.80;1677121;83;21137;-75
2021/07/07 05:14:04;;;;;;;3.72;2.12;;;;;;;23.65;55.11;100503.78;1672394;83;21138;-77
2021/07/07 05:16:32;;;;;;;2.25;2.08;;;;;;;23.72;54.87;100511.13;1676286;85;21033;-74
2021/07/07 05:19:00;;;;;;;2.17;2.08;;;;;;;23.83;53.93;100512.80;1675619;84;21074;-77
2021/07/07 05:21:26;;;;;;;2.05;1.67;;;;;;;23.90;53.58;100515.23;1679056;83;21028;-75
2021/07/07 05:23:52;;;;;;;6.45;2.70;;;;;;;23.95;52.99;100523.41;1682139;83;21031;-76
2021/07/07 05:26:18;;;;;;;2.05;1.95;;;;;;;24.02;52.87;100517.14;1666732;84;21590;-76
2021/07/07 05:28:44;;;;;;;1.47;1.37;;;;;;;24.10;52.76;100521.22;1675308;85;21850;-75
2021/07/07 05:31:10;;;;;;;4.28;1.40;;;;;;;24.17;51.56;100519.59;1677134;85;21555;-74
2021/07/07 05:33:36;;;;;;;2.37;2.17;;;;;;;24.26;51.04;100524.72;1685596;85;21072;-75
2021/07/07 05:36:07;;;;;;;2.50;1.10;;;;;;;24.36;50.70;100525.27;1685933;85;21027;-74
2021/07/07 05:38:35;;;;;;;3.47;1.10;;;;;;;24.46;49.04;100531.48;1671761;85;21099;-75
2021/07/07 05:41:02;;;;;;;1.85;1.12;;;;;;;24.78;47.45;100527.60;1683759;84;21003;-74
2021/07/07 05:43:30;;;;;;;4.87;0.75;;;;;;;25.26;45.48;100536.69;1675416;85;21029;-73
2021/07/07 05:45:59;;;;;;;2.45;0.47;;;;;;;25.86;44.40;100526.16;1683326;85;21097;-72
2021/07/07 05:48:29;;;;;;;0.42;0.30;;;;;;;26.54;42.96;100524.70;1688387;85;21004;-76
2021/07/07 05:50:57;;;;;;;4.28;0.68;;;;;;;27.06;40.81;100530.92;1684561;85;21061;-74
2021/07/07 05:53:23;;;;;;;1.67;0.30;;;;;;;27.28;38.39;100537.23;1684404;85;21105;-73
2021/07/07 05:55:50;;;;;;;4.83;0.62;;;;;;;27.36;37.98;100546.94;1685411;85;21042;-74
2021/07/07 05:58:16;;;;;;;3.45;0.30;;;;;;;27.38;37.84;100546.08;1674349;85;21546;-74
2021/07/07 06:00:42;;;;;;;1.22;0.30;;;;;;;27.38;37.13;100541.17;1677656;84;21535;-74
2021/07/07 06:03:10;;;;;;;1.07;0.47;;;;;;;27.36;38.03;100546.13;1679657;85;21002;-74
2021/07/07 06:05:36;;;;;;;3.22;0.62;;;;;;;27.41;38.34;100542.48;1684204;85;21570;-74
2021/07/07 06:08:05;;;;;;;1.37;0.40;;;;;;;27.67;37.92;100539.64;1679411;83;21138;-74
2021/07/07 06:10:31;;;;;;;4.92;0.30;;;;;;;27.96;36.81;100545.50;1684605;84;21046;-74
2021/07/07 06:12:57;;;;;;;0.40;0.33;;;;;;;28.08;37.10;100539.53;1688082;84;21124;-74
2021/07/07 06:15:25;;;;;;;3.52;0.50;;;;;;;28.29;36.93;100547.66;1689130;84;21077;-76
2021/07/07 06:17:52;;;;;;;3.47;0.28;;;;;;;28.44;36.65;100545.16;1691043;84;21006;-74
2021/07/07 06:22:39;;;;;;;;;;;;;;;28.65;35.73;100555.77;1799209;78;22832;-80
2021/07/07 06:25:09;;;;;;;2.10;0.62;;;;;;;28.41;35.38;100560.86;1735213;81;20202;-76
2021/07/07 06:27:37;;;;;;;0.65;0.33;;;;;;;28.32;36.12;100545.66;1729885;81;21514;-75
2021/07/07 06:30:07;;;;;;;2.75;0.30;;;;;;;28.41;36.57;100545.78;1729433;81;21065;-74
2021/07/07 06:32:33;;;;;;;0.55;0.20;;;;;;;28.54;36.30;100555.17;1731135;81;21062;-74
2021/07/07 06:35:02;;;;;;;0.95;0.20;;;;;;;28.84;35.02;100556.48;1734743;81;21809;-74
2021/07/07 06:37:30;;;;;;;0.40;0.40;;;;;;;29.16;34.09;100552.01;1737724;81;21065;-74
2021/07/07 06:39:56;;;;;;;7.78;0.10;;;;;;;29.45;32.47;100548.86;1732402;81;21072;-74
2021/07/07 06:42:22;;;;;;;0.47;0.20;;;;;;;29.53;31.94;100559.66;1730602;81;21035;-74
2021/07/07 06:44:50;;;;;;;1.62;0.20;;;;;;;29.56;31.86;100562.36;1722490;81;21003;-75
2021/07/07 06:47:17;;;;;;;2.42;0.40;;;;;;;29.70;31.04;100568.59;1719950;81;21063;-74
2021/07/07 06:49:43;;;;;;;2.42;0.30;;;;;;;29.80;31.67;100562.07;1734172;81;21072;-73
2021/07/07 06:52:09;;;;;;;2.02;0.40;;;;;;;29.81;31.97;100559.59;1737817;81;20997;-74
2021/07/07 06:54:35;;;;;;;2.75;0.30;;;;;;;29.86;32.23;100556.72;1729485;81;21123;-74
2021/07/07 06:57:02;;;;;;;1.95;0.20;;;;;;;29.77;31.92;100558.02;1722763;81;20997;-75
2021/07/07 06:59:29;;;;;;;0.30;0.30;;;;;;;29.52;32.82;100560.80;1702826;83;21522;-74
2021/07/07 07:01:55;;;;;;;2.00;0.30;;;;;;;29.38;33.14;100561.39;1696416;81;21081;-75
2021/07/07 07:04:21;;;;;;;4.92;0.30;;;;;;;29.44;33.50;100556.86;1681100;84;21110;-74
2021/07/07 07:06:47;;;;;;;1.85;0.37;;;;;;;29.55;33.51;100554.67;1685150;84;21194;-75
2021/07/07 07:09:15;;;;;;;2.00;0.30;;;;;;;29.68;33.50;100557.11;1688671;84;21058;-75
2021/07/07 07:11:41;;;;;;;1.15;0.50;;;;;;;29.78;34.12;100552.80;1696843;82;21080;-75
2021/07/07 07:14:08;;;;;;;3.22;0.50;;;;;;;29.90;34.11;100561.83;1679717;84;21015;-74
2021/07/07 07:16:34;;;;;;;1.35;0.60;;;;;;;29.96;34.17;100550.95;1692696;84;21006;-75
2021/07/07 07:19:01;;;;;;;1.07;0.47;;;;;;;29.97;34.44;100560.84;1650071;85;21012;-75
2021/07/07 07:21:27;;;;;;;1.62;0.60;;;;;;;29.94;34.73;100554.58;1674753;84;21078;-75
2021/07/07 07:23:54;;;;;;;0.75;0.75;;;;;;;29.91;35.01;100558.52;1670256;85;21370;-74
2021/07/07 07:26:20;;;;;;;0.72;0.72;;;;;;;29.91;35.39;100557.14;1640815;86;21104;-75
2021/07/07 07:28:47;;;;;;;1.17;0.45;;;;;;;29.94;35.76;100556.53;1702914;83;21442;-76
2021/07/07 07:31:14;;;;;;;2.20;0.53;;;;;;;29.86;35.60;100545.73;1700530;83;21476;-73
2021/07/07 07:33:41;;;;;;;2.87;0.55;;;;;;;29.82;35.86;100557.91;1700001;83;21050;-76
2021/07/07 07:36:09;;;;;;;6.15;1.00;;;;;;;29.74;36.50;100547.65;1700104;83;21100;-73
2021/07/07 07:38:41;;;;;;;2.95;0.80;;;;;;;29.55;36.44;100560.73;1700534;83;21029;-79
2021/07/07 07:41:06;;;;;;;1.15;0.37;;;;;;;29.35;36.43;100575.19;1699247;83;21093;-75
2021/07/07 07:43:33;;;;;;;2.10;0.78;;;;;;;29.15;36.73;100561.91;1704461;83;21006;-74
2021/07/07 07:46:01;;;;;;;3.65;0.70;;;;;;;28.96;37.11;100553.22;1701157;83;21014;-75
2021/07/07 07:48:28;;;;;;;0.90;0.90;;;;;;;28.82;37.41;100565.59;1696080;83;20995;-77
2021/07/07 07:50:56;;;;;;;1.77;0.60;;;;;;;28.73;38.36;100570.16;1668656;84;21017;-79
2021/07/07 07:53:24;;;;;;;1.62;0.75;;;;;;;28.61;38.39;100565.72;1670304;84;21042;-81
2021/07/07 07:55:51;;;;;;;2.52;0.85;;;;;;;28.43;39.44;100576.45;1698047;83;21127;-78
2021/07/07 07:58:18;;;;;;;1.42;0.78;;;;;;;28.27;39.54;100553.97;1706279;83;21070;-76
2021/07/07 08:00:50;;;;;;;1.20;0.78;;;;;;;28.14;40.37;100558.33;1700233;83;21014;-80
2021/07/07 08:03:16;;;;;;;5.70;0.80;;;;;;;28.10;40.17;100591.53;1704876;83;21017;-78
2021/07/07 08:05:43;;;;;;;1.45;0.85;;;;;;;27.95;39.97;100576.73;1709363;83;21042;-79
2021/07/07 08:08:11;;;;;;;1.05;0.55;;;;;;;27.72;40.07;100592.94;1711029;83;21018;-79
2021/07/07 08:10:38;;;;;;;2.05;0.68;;;;;;;27.47;40.45;100570.06;1665435;84;21006;-79
2021/07/07 08:13:07;;;;;;;2.20;0.90;;;;;;;27.21;40.95;100584.62;1666029;84;21062;-79
2021/07/07 08:15:34;;;;;;;1.52;0.95;;;;;;;27.08;41.13;100578.75;1656840;85;21581;-80
2021/07/07 08:18:01;;;;;;;1.22;1.10;;;;;;;27.01;41.59;100570.08;1665631;84;21070;-81
2021/07/07 08:20:27;;;;;;;1.75;0.80;;;;;;;26.99;41.39;100578.61;1668356;85;21113;-80
2021/07/07 08:22:54;;;;;;;2.52;1.12;;;;;;;26.94;41.76;100575.13;1637810;86;21095;-79
2021/07/07 08:25:21;;;;;;;1.40;0.80;;;;;;;26.91;41.69;100594.84;1659058;85;21004;-78
2021/07/07 08:27:49;;;;;;;1.32;0.72;;;;;;;26.92;41.69;100575.41;1656177;85;21242;-79
2021/07/07 08:30:17;;;;;;;3.15;0.55;;;;;;;26.94;41.66;100599.17;1661640;86;21042;-79
2021/07/07 08:32:46;;;;;;;1.65;0.70;;;;;;;26.94;42.19;100582.77;1656587;86;21038;-79
2021/07/07 08:35:13;;;;;;;2.27;1.17;;;;;;;26.96;42.01;100593.42;1632142;86;21559;-77
2021/07/07 08:37:41;;;;;;;3.05;1.00;;;;;;;26.94;41.51;100581.96;1629654;87;21588;-79
2021/07/07 08:40:10;;;;;;;1.15;1.00;;;;;;;26.92;41.52;100593.19;1635159;87;21088;-81
2021/07/07 08:42:42;;;;;;;2.20;1.02;;;;;;;26.95;41.31;100597.25;1631276;87;21576;-78
2021/07/07 08:45:13;;;;;;;1.12;0.95;;;;;;;26.89;41.20;100584.19;1630443;87;21107;-80
2021/07/07 08:47:43;;;;;;;3.10;1.05;;;;;;;26.60;41.77;100546.80;1608403;87;20994;-80
2021/07/07 08:50:17;;;;;;;3.40;0.80;;;;;;;26.93;41.70;100591.26;1629934;87;20999;-78
2021/07/07 08:52:44;;;;;;;2.52;0.90;;;;;;;26.95;41.67;100593.95;1621520;87;21059;-79
2021/07/07 08:55:14;;;;;;;4.10;0.88;;;;;;;26.96;41.71;100597.52;1631233;87;21321;-80
2021/07/07 08:57:44;;;;;;;1.62;0.70;;;;;;;26.98;41.03;100607.62;1629879;87;21072;-77
2021/07/07 09:00:19;;;;;;;6.75;0.88;;;;;;;26.94;40.22;100599.17;1630667;87;21353;-78
2021/07/07 09:02:54;;;;;;;2.50;0.50;;;;;;;26.87;40.17;100606.91;1599607;90;21075;-79
2021/07/07 09:05:21;;;;;;;4.87;0.95;;;;;;;26.78;40.45;100625.06;1598407;90;21110;-79
2021/07/07 09:07:48;;;;;;;1.25;1.15;;;;;;;26.71;40.64;100626.79;1595687;89;21158;-80
2021/07/07 09:10:18;;;;;;;1.25;0.75;;;;;;;26.73;40.92;100622.38;1595663;90;21110;-78
2021/07/07 09:12:45;;;;;;;8.88;1.05;;;;;;;26.77;40.49;100608.41;1586961;89;21035;-79
2021/07/07 09:15:15;;;;;;;1.80;0.47;;;;;;;26.76;40.77;100617.70;1611165;89;21554;-79
2021/07/07 09:17:48;;;;;;;0.65;0.57;;;;;;;26.74;41.10;100621.28;1600638;89;21063;-80
2021/07/07 09:20:33;;;;;;;0.80;0.80;;;;;;;26.75;41.44;100618.83;1616224;88;21055;-78
2021/07/07 09:23:19;;;;;;;2.22;0.72;;;;;;;26.78;41.12;100600.45;1609033;88;21072;-80
2021/07/07 09:25:51;;;;;;;5.75;1.05;;;;;;;26.85;41.37;100610.49;1650024;86;21134;-80
2021/07/07 09:28:33;;;;;;;1.15;0.75;;;;;;;26.96;40.47;100624.88;1649849;86;21173;-79
2021/07/07 09:31:05;;;;;;;3.60;0.65;;;;;;;27.04;40.01;100629.69;1649335;86;21487;-74
2021/07/07 09:33:42;;;;;;;0.88;0.60;;;;;;;27.00;39.51;100621.25;1637317;86;21011;-73
2021/07/07 09:36:23;;;;;;;1.60;0.82;;;;;;;26.93;39.38;100626.81;1582014;89;21735;-75
2021/07/07 09:38:52;;;;;;;0.60;0.60;;;;;;;26.90;39.33;100647.89;1577657;89;21554;-77
2021/07/07 09:41:20;;;;;;;2.05;0.47;;;;;;;26.61;39.66;100584.50;1577749;89;21113;-76
2021/07/07 09:43:50;;;;;;;1.82;0.93;;;;;;;26.88;40.03;100624.97;1578123;89;21175;-76
2021/07/07 09:46:18;;;;;;;2.67;0.47;;;;;;;26.94;39.72;100646.23;1594766;88;21608;-75
2021/07/07 09:48:47;;;;;;;1.77;0.50;;;;;;;26.99;39.72;100634.69;1621699;87;21065;-76
2021/07/07 09:51:13;;;;;;;3.70;0.60;;;;;;;26.96;40.27;100631.16;1618533;87;21014;-73
2021/07/07 09:53:40;;;;;;;4.62;0.68;;;;;;;26.89;40.64;100623.84;1619907;87;21580;-74
2021/07/07 09:56:06;;;;;;;1.40;0.70;;;;;;;26.87;40.64;100633.45;1611199;87;21089;-75
2021/07/07 09:58:33;;;;;;;1.57;0.85;;;;;;;26.92;40.68;100626.01;1575324;90;21064;-73
2021/07/07 10:00:59;;;;;;;2.17;0.75;;;;;;;27.01;40.56;100639.84;1598601;88;21111;-74
2021/07/07 10:03:26;;;;;;;1.17;0.60;;;;;;;27.09;40.62;100632.94;1575868;89;21183;-76
2021/07/07 10:05:54;;;;;;;2.47;0.85;;;;;;;27.09;40.87;100643.31;1586812;89;21090;-74
2021/07/07 10:08:21;;;;;;;1.75;0.80;;;;;;;27.03;41.28;100631.34;1630182;87;21043;-76
2021/07/07 10:10:48;;;;;;;2.70;0.60;;;;;;;27.03;40.66;100658.70;1634851;86;21600;-74
2021/07/07 10:13:15;;;;;;;0.78;0.72;;;;;;;27.05;40.64;100659.22;1618467;87;21070;-74
2021/07/07 10:15:41;;;;;;;3.47;0.72;;;;;;;27.03;40.27;100639.55;1623367;87;21067;-74
2021/07/07 10:18:08;;;;;;;6.58;0.80;;;;;;;27.00;39.98;100636.30;1614487;87;21078;-76
2021/07/07 10:20:36;;;;;;;3.62;0.60;;;;;;;26.97;40.02;100641.00;1560413;90;21181;-76
2021/07/07 10:23:06;;;;;;;7.40;0.60;;;;;;;26.95;39.35;100663.70;1596486;87;21007;-76
2021/07/07 10:25:33;;;;;;;1.00;0.40;;;;;;;26.93;39.10;100659.63;1563860;90;21175;-73
2021/07/07 10:28:07;;;;;;;3.70;0.90;;;;;;;26.95;39.01;100658.79;1574879;90;21064;-73
2021/07/07 10:30:56;;;;;;;2.98;0.28;;;;;;;26.96;38.45;100662.61;1589911;88;21009;-74
2021/07/07 10:33:34;;;;;;;1.87;0.20;;;;;;;26.97;38.15;100656.05;1599065;87;21812;-74
2021/07/07 10:36:28;;;;;;;2.35;0.55;;;;;;;26.98;38.16;100655.48;1571395;88;21098;-73
2021/07/07 10:39:05;;;;;;;1.95;0.35;;;;;;;26.98;38.13;100637.14;1593288;88;21138;-74
2021/07/07 10:42:02;;;;;;;0.62;0.53;;;;;;;27.01;38.23;100646.67;1621546;87;21027;-75
2021/07/07 10:44:40;;;;;;;3.85;0.37;;;;;;;27.11;37.67;100669.02;1591078;88;21175;-75
2021/07/07 10:47:12;;;;;;;2.15;0.40;;;;;;;27.11;36.83;100673.94;1613339;88;21064;-74
2021/07/07 10:49:46;;;;;;;2.52;0.40;;;;;;;27.12;36.22;100666.53;1635478;85;21022;-74
2021/07/07 10:52:20;;;;;;;1.45;0.17;;;;;;;27.12;36.24;100644.64;1651577;85;21685;-74
2021/07/07 10:54:57;;;;;;;3.50;0.40;;;;;;;27.19;36.56;100675.21;1655144;85;21139;-76
2021/07/07 10:57:26;;;;;;;2.20;0.20;;;;;;;27.30;36.55;100649.38;1647627;85;21074;-73
2021/07/07 10:59:55;;;;;;;2.05;0.40;;;;;;;27.41;36.47;100664.29;1651308;85;21665;-74
2021/07/07 11:02:26;;;;;;;1.55;0.25;;;;;;;27.45;36.33;100658.52;1660105;86;21032;-74
2021/07/07 11:05:02;;;;;;;3.35;0.20;;;;;;;27.47;36.33;100674.89;1658164;86;21584;-75
2021/07/07 11:07:39;;;;;;;1.80;0.30;;;;;;;27.48;36.24;100649.16;1655987;85;21046;-74
2021/07/07 11:10:18;;;;;;;2.60;0.40;;;;;;;27.48;36.27;100653.80;1654397;85;21145;-75
2021/07/07 11:12:55;;;;;;;4.15;0.45;;;;;;;27.50;36.75;100658.42;1674435;84;21173;-75
2021/07/07 11:15:25;;;;;;;3.02;0.68;;;;;;;27.51;36.58;100654.03;1678333;84;21756;-73
2021/07/07 11:17:58;;;;;;;1.32;0.30;;;;;;;27.45;36.70;100652.48;1654016;85;21129;-73
2021/07/07 11:20:32;;;;;;;0.57;0.10;;;;;;;27.47;36.93;100661.77;1639742;85;21219;-76
2021/07/07 11:23:08;;;;;;;4.17;0.95;;;;;;;27.51;37.32;100658.70;1645567;85;21580;-76
2021/07/07 11:25:39;;;;;;;4.47;0.25;;;;;;;27.54;37.35;100670.44;1680137;84;21102;-77
2021/07/07 11:28:15;;;;;;;0.62;0.30;;;;;;;27.55;37.46;100654.26;1669309;85;21019;-75
2021/07/07 11:30:40;;;;;;;0.37;0.20;;;;;;;27.60;37.39;100658.30;1673996;84;21046;-76
2021/07/07 11:33:08;;;;;;;8.40;0.37;;;;;;;27.60;37.01;100669.25;1682907;84;21127;-76
2021/07/07 11:35:41;;;;;;;2.37;0.53;;;;;;;27.58;36.66;100656.42;1683067;84;21085;-77